createdAt,value
2019-03-31T00:01:44.840Z,12.50
2019-03-31T00:04:15.271Z,12.50
2019-03-31T00:06:46.384Z,12.50
2019-03-31T00:09:17.110Z,12.40
2019-03-31T00:11:47.985Z,12.40
2019-03-31T00:14:18.438Z,12.40
2019-03-31T00:16:52.321Z,12.40
2019-03-31T00:19:21.645Z,12.30
2019-03-31T00:21:52.049Z,12.20
2019-03-31T00:24:22.628Z,12.20
2019-03-31T00:26:53.277Z,12.10
2019-03-31T00:29:24.187Z,12.10
2019-03-31T00:31:54.708Z,12.00
2019-03-31T00:34:26.283Z,12.00
2019-03-31T00:36:56.857Z,12.00
2019-03-31T00:39:27.667Z,11.90
2019-03-31T00:41:58.208Z,11.90
2019-03-31T00:44:28.824Z,11.90
2019-03-31T00:47:02.040Z,11.80
2019-03-31T00:49:31.763Z,11.80
2019-03-31T00:52:02.164Z,11.80
2019-03-31T00:54:32.639Z,11.70
2019-03-31T00:57:03.100Z,11.70
2019-03-31T00:59:33.650Z,11.70
2019-03-31T01:02:09.279Z,11.70
2019-03-31T01:04:40.329Z,11.70
2019-03-31T01:07:11.338Z,11.60
2019-03-31T01:09:42.763Z,11.60
2019-03-31T01:12:13.445Z,11.60
2019-03-31T01:14:44.017Z,11.50
2019-03-31T01:17:14.818Z,11.50
2019-03-31T01:19:45.409Z,11.40
2019-03-31T01:22:16.517Z,11.40
2019-03-31T01:24:47.373Z,11.30
2019-03-31T01:27:18.427Z,11.30
2019-03-31T01:29:49.627Z,11.20
2019-03-31T01:32:20.324Z,11.20
2019-03-31T01:34:50.926Z,11.20
2019-03-31T01:37:21.575Z,11.20
2019-03-31T01:39:52.287Z,11.20
2019-03-31T01:42:23.174Z,11.10
2019-03-31T01:44:53.675Z,11.10
2019-03-31T01:47:24.324Z,11.10
2019-03-31T01:49:54.902Z,11.00
2019-03-31T01:52:25.390Z,11.00
2019-03-31T01:54:56.633Z,11.00
2019-03-31T01:57:27.204Z,11.00
2019-03-31T01:59:57.663Z,10.90
2019-03-31T02:02:29.759Z,10.90
2019-03-31T02:05:00.390Z,10.90
2019-03-31T02:07:31.170Z,10.90
2019-03-31T02:10:01.732Z,10.90
2019-03-31T02:12:33.850Z,10.90
2019-03-31T02:15:05.776Z,10.90
2019-03-31T02:17:37.239Z,10.90
2019-03-31T02:20:07.761Z,10.80
2019-03-31T02:22:38.393Z,10.80
2019-03-31T02:25:09.079Z,10.80
2019-03-31T02:27:39.806Z,10.70
2019-03-31T02:30:10.360Z,10.70
2019-03-31T02:32:40.830Z,10.60
2019-03-31T02:35:11.748Z,10.50
2019-03-31T02:37:42.203Z,10.50
2019-03-31T02:40:12.713Z,10.50
2019-03-31T02:42:43.463Z,10.40
2019-03-31T02:45:14.092Z,10.40
2019-03-31T02:47:44.603Z,10.30
2019-03-31T02:50:30.187Z,10.30
2019-03-31T02:53:00.564Z,10.20
2019-03-31T02:55:30.932Z,10.20
2019-03-31T02:58:01.693Z,10.20
2019-03-31T03:00:32.331Z,10.20
2019-03-31T03:03:02.873Z,10.10
2019-03-31T03:05:33.660Z,10.10
2019-03-31T03:08:05.570Z,10.00
2019-03-31T03:10:36.051Z,10.00
2019-03-31T03:13:07.025Z,10.00
2019-03-31T03:15:46.133Z,10.00
2019-03-31T03:18:16.859Z,10.00
2019-03-31T03:20:47.282Z,10.00
2019-03-31T03:23:17.779Z,10.00
2019-03-31T03:25:56.393Z,10.00
2019-03-31T03:28:21.083Z,10.00
2019-03-31T03:30:51.617Z,9.90
2019-03-31T03:33:22.199Z,9.90
2019-03-31T03:35:52.665Z,9.90
2019-03-31T03:38:24.361Z,9.80
2019-03-31T03:40:54.984Z,9.80
2019-03-31T03:43:25.679Z,9.70
2019-03-31T03:45:56.274Z,9.70
2019-03-31T03:48:27.015Z,9.70
2019-03-31T03:50:57.970Z,9.70
2019-03-31T03:53:28.532Z,9.70
2019-03-31T03:55:59.106Z,9.70
2019-03-31T03:58:29.998Z,9.70
2019-03-31T04:01:01.327Z,9.60
2019-03-31T04:03:31.720Z,9.60
2019-03-31T04:06:02.458Z,9.60
2019-03-31T04:08:32.988Z,9.60
2019-03-31T04:11:11.133Z,9.60
2019-03-31T04:13:41.643Z,9.60
2019-03-31T04:16:12.065Z,9.60
2019-03-31T04:18:42.710Z,9.50
2019-03-31T04:21:13.271Z,9.50
2019-03-31T04:23:43.764Z,9.50
2019-03-31T04:26:14.266Z,9.50
2019-03-31T04:28:45.165Z,9.50
2019-03-31T04:31:15.745Z,9.50
2019-03-31T04:33:51.811Z,9.50
2019-03-31T04:36:18.407Z,9.50
2019-03-31T04:38:48.997Z,9.50
2019-03-31T04:41:20.719Z,9.50
2019-03-31T04:43:51.247Z,9.40
2019-03-31T04:46:22.062Z,9.40
2019-03-31T04:48:52.649Z,9.40
2019-03-31T04:51:23.114Z,9.30
2019-03-31T04:53:53.724Z,9.30
2019-03-31T04:56:24.105Z,9.20
2019-03-31T04:58:54.458Z,9.20
2019-03-31T05:01:25.297Z,9.20
2019-03-31T05:04:04.545Z,9.20
2019-03-31T05:06:28.113Z,9.20
2019-03-31T05:08:58.934Z,9.20
2019-03-31T05:11:29.385Z,9.20
2019-03-31T05:13:59.757Z,9.20
2019-03-31T05:16:30.219Z,9.20
2019-03-31T05:19:00.933Z,9.20
2019-03-31T05:21:31.367Z,9.20
2019-03-31T05:24:02.625Z,9.20
2019-03-31T05:26:33.670Z,9.20
2019-03-31T05:29:04.212Z,9.20
2019-03-31T05:31:34.859Z,9.20
2019-03-31T05:34:18.516Z,9.20
2019-03-31T05:36:37.450Z,9.20
2019-03-31T05:39:08.292Z,9.30
2019-03-31T05:41:38.787Z,9.30
2019-03-31T05:44:09.225Z,9.30
2019-03-31T05:46:39.879Z,9.30
2019-03-31T05:49:10.600Z,9.30
2019-03-31T05:51:41.546Z,9.30
2019-03-31T05:54:12.108Z,9.30
2019-03-31T05:56:42.642Z,9.30
2019-03-31T05:59:13.420Z,9.40
2019-03-31T06:01:44.238Z,9.40
2019-03-31T06:04:14.743Z,9.50
2019-03-31T06:06:45.090Z,9.50
2019-03-31T06:09:15.438Z,9.60
2019-03-31T06:11:46.188Z,9.60
2019-03-31T06:14:16.883Z,9.60
2019-03-31T06:16:47.432Z,9.70
2019-03-31T06:19:17.871Z,9.70
2019-03-31T06:21:48.414Z,9.80
2019-03-31T06:24:18.868Z,9.90
2019-03-31T06:26:49.482Z,9.90
2019-03-31T06:29:20.034Z,9.90
2019-03-31T06:31:50.757Z,10.00
2019-03-31T06:34:21.311Z,10.10
2019-03-31T06:36:51.851Z,10.10
2019-03-31T06:39:23.031Z,10.10
2019-03-31T06:41:53.667Z,10.20
2019-03-31T06:44:24.466Z,10.20
2019-03-31T06:46:54.976Z,10.30
2019-03-31T06:49:25.502Z,10.40
2019-03-31T06:51:56.071Z,10.40
2019-03-31T06:54:26.572Z,10.50
2019-03-31T06:56:57.497Z,10.60
2019-03-31T06:59:28.036Z,10.70
2019-03-31T07:01:58.485Z,10.80
2019-03-31T07:04:29.231Z,10.90
2019-03-31T07:06:59.821Z,10.90
2019-03-31T07:09:30.391Z,11.10
2019-03-31T07:12:01.128Z,11.30
2019-03-31T07:14:31.669Z,11.70
2019-03-31T07:17:02.281Z,12.40
2019-03-31T07:19:32.917Z,13.40
2019-03-31T07:22:03.332Z,14.50
2019-03-31T07:24:33.879Z,15.70
2019-03-31T07:27:04.511Z,17.00
2019-03-31T07:29:35.128Z,18.30
2019-03-31T07:32:05.705Z,19.40
2019-03-31T07:34:37.010Z,20.20
2019-03-31T07:37:07.990Z,21.10
2019-03-31T07:39:38.552Z,22.00
2019-03-31T07:42:09.216Z,22.90
2019-03-31T07:44:39.906Z,23.80
2019-03-31T07:47:11.229Z,24.60
2019-03-31T07:49:41.982Z,25.30
2019-03-31T07:52:12.994Z,25.90
2019-03-31T07:54:43.651Z,26.30
2019-03-31T07:57:14.476Z,26.90
2019-03-31T07:59:45.346Z,27.40
2019-03-31T08:02:15.974Z,27.60
2019-03-31T08:04:46.728Z,27.60
2019-03-31T08:07:19.278Z,27.70
2019-03-31T08:09:52.432Z,27.80
2019-03-31T08:12:23.030Z,28.10
2019-03-31T08:14:54.111Z,28.30
2019-03-31T08:17:25.180Z,28.60
2019-03-31T08:19:58.067Z,28.90
2019-03-31T08:22:29.042Z,29.10
2019-03-31T08:25:00.467Z,29.30
2019-03-31T08:27:33.806Z,29.60
2019-03-31T08:30:05.772Z,30.00
2019-03-31T08:32:38.168Z,30.40
2019-03-31T08:35:09.874Z,30.80
2019-03-31T08:37:40.977Z,31.20
2019-03-31T08:40:11.814Z,31.60
2019-03-31T08:42:43.066Z,32.00
2019-03-31T08:45:14.119Z,32.40
2019-03-31T08:47:44.701Z,32.80
2019-03-31T08:50:15.338Z,33.00
2019-03-31T08:52:46.527Z,33.30
2019-03-31T08:55:17.543Z,33.70
2019-03-31T08:57:48.355Z,34.10
2019-03-31T09:00:41.270Z,34.40
2019-03-31T09:03:14.135Z,34.70
2019-03-31T09:05:45.438Z,35.00
2019-03-31T09:08:16.591Z,35.30
2019-03-31T09:10:47.586Z,35.40
2019-03-31T09:14:32.937Z,35.50
2019-03-31T09:17:15.706Z,35.60
2019-03-31T09:19:46.519Z,35.60
2019-03-31T09:22:19.567Z,35.60
2019-03-31T09:24:53.582Z,35.70
2019-03-31T09:27:25.341Z,35.70
2019-03-31T09:30:18.538Z,35.80
2019-03-31T09:32:48.967Z,35.90
2019-03-31T09:35:19.604Z,36.10
2019-03-31T09:37:56.258Z,36.30
2019-03-31T09:40:26.752Z,36.50
2019-03-31T09:42:57.693Z,36.70
2019-03-31T09:45:28.329Z,36.80
2019-03-31T09:47:59.104Z,37.00
2019-03-31T09:50:30.111Z,37.00
2019-03-31T09:53:04.171Z,37.10
2019-03-31T09:55:34.891Z,37.20
2019-03-31T09:58:06.158Z,37.20
2019-03-31T10:00:45.160Z,37.20
2019-03-31T10:03:15.812Z,37.30
2019-03-31T10:05:48.343Z,37.40
2019-03-31T10:08:21.984Z,37.70
2019-03-31T10:10:51.301Z,37.80
2019-03-31T10:13:22.154Z,38.00
2019-03-31T10:15:53.154Z,38.00
2019-03-31T10:18:23.678Z,38.00
2019-03-31T10:20:54.282Z,37.90
2019-03-31T10:23:24.970Z,37.70
2019-03-31T10:25:56.204Z,37.50
2019-03-31T10:28:26.735Z,37.20
2019-03-31T10:30:57.427Z,37.00
2019-03-31T10:33:28.277Z,36.90
2019-03-31T10:35:58.991Z,36.70
2019-03-31T10:38:29.662Z,36.60
2019-03-31T10:41:00.095Z,36.60
2019-03-31T10:43:31.117Z,36.50
2019-03-31T10:46:01.843Z,36.40
2019-03-31T10:48:32.373Z,36.30
2019-03-31T10:51:02.796Z,36.20
2019-03-31T10:53:33.657Z,35.90
2019-03-31T10:56:04.620Z,35.60
2019-03-31T10:58:35.195Z,35.30
2019-03-31T11:01:05.734Z,35.00
2019-03-31T11:03:36.385Z,34.80
2019-03-31T11:06:07.007Z,34.80
2019-03-31T11:08:37.648Z,34.70
2019-03-31T11:11:08.552Z,34.70
2019-03-31T11:13:39.303Z,34.70
2019-03-31T11:16:09.862Z,34.70
2019-03-31T11:18:40.557Z,34.70
2019-03-31T11:21:22.023Z,34.70
2019-03-31T11:23:52.876Z,34.70
2019-03-31T11:26:24.004Z,34.70
2019-03-31T11:28:59.848Z,34.60
2019-03-31T11:31:30.682Z,34.50
2019-03-31T11:34:01.753Z,34.20
2019-03-31T11:36:32.290Z,33.80
2019-03-31T11:39:02.962Z,33.40
2019-03-31T11:41:33.611Z,33.00
2019-03-31T11:44:04.952Z,32.70
2019-03-31T11:46:36.113Z,32.40
2019-03-31T11:49:06.690Z,32.30
2019-03-31T11:51:37.306Z,32.20
2019-03-31T11:54:14.247Z,32.20
2019-03-31T11:56:46.931Z,32.30
2019-03-31T11:59:21.046Z,32.30
2019-03-31T12:01:52.153Z,32.30
2019-03-31T12:04:23.635Z,32.30
2019-03-31T12:07:08.188Z,32.20
2019-03-31T12:09:38.979Z,31.90
2019-03-31T12:12:10.041Z,31.50
2019-03-31T12:14:40.556Z,31.10
2019-03-31T12:17:11.375Z,30.80
2019-03-31T12:19:42.263Z,30.70
2019-03-31T12:22:13.317Z,30.60
2019-03-31T12:24:44.067Z,30.50
2019-03-31T12:27:14.852Z,30.60
2019-03-31T12:29:45.699Z,30.60
2019-03-31T12:32:16.220Z,30.60
2019-03-31T12:34:46.807Z,30.50
2019-03-31T12:37:18.431Z,30.50
2019-03-31T12:39:49.168Z,30.50
2019-03-31T12:42:19.810Z,30.40
2019-03-31T12:44:50.540Z,30.40
2019-03-31T12:47:21.455Z,30.30
2019-03-31T12:49:52.016Z,30.10
2019-03-31T12:52:23.220Z,29.80
2019-03-31T12:54:55.461Z,29.60
2019-03-31T12:57:26.316Z,29.30
2019-03-31T12:59:57.112Z,28.90
2019-03-31T13:02:27.987Z,28.50
2019-03-31T13:04:58.793Z,28.10
2019-03-31T13:07:29.868Z,27.70
2019-03-31T13:10:01.450Z,27.30
2019-03-31T13:12:34.936Z,26.90
2019-03-31T13:15:04.670Z,26.70
2019-03-31T13:17:35.295Z,26.50
2019-03-31T13:20:06.920Z,26.40
2019-03-31T13:22:38.417Z,26.30
2019-03-31T13:25:11.061Z,26.20
2019-03-31T13:27:44.812Z,26.10
2019-03-31T13:30:15.713Z,26.00
2019-03-31T13:32:48.458Z,25.90
2019-03-31T13:35:19.435Z,25.90
2019-03-31T13:37:51.184Z,25.80
2019-03-31T13:40:22.325Z,25.80
2019-03-31T13:42:53.322Z,25.60
2019-03-31T13:45:24.358Z,25.60
2019-03-31T13:47:58.493Z,25.60
2019-03-31T13:50:29.209Z,25.50
2019-03-31T13:53:00.587Z,25.40
2019-03-31T13:55:31.680Z,25.20
2019-03-31T13:58:04.705Z,25.10
2019-03-31T14:00:43.957Z,24.90
2019-03-31T14:03:15.436Z,24.80
2019-03-31T14:05:46.551Z,24.70
2019-03-31T14:08:25.874Z,24.60
2019-03-31T14:10:57.056Z,24.50
2019-03-31T14:13:32.059Z,24.50
2019-03-31T14:16:04.222Z,24.40
2019-03-31T14:18:34.851Z,24.30
2019-03-31T14:21:15.843Z,24.10
2019-03-31T14:23:49.681Z,24.00
2019-03-31T14:26:22.050Z,23.80
2019-03-31T14:28:52.790Z,23.70
2019-03-31T14:31:23.288Z,23.60
2019-03-31T14:33:55.447Z,23.50
2019-03-31T14:36:26.511Z,23.40
2019-03-31T14:38:57.560Z,23.30
2019-03-31T14:41:29.481Z,23.20
2019-03-31T14:44:01.120Z,23.10
2019-03-31T14:46:32.688Z,23.00
2019-03-31T14:49:04.830Z,23.00
2019-03-31T14:51:35.901Z,22.90
2019-03-31T14:54:07.057Z,22.90
2019-03-31T14:56:38.170Z,22.70
2019-03-31T14:59:09.547Z,22.70
2019-03-31T15:01:40.751Z,22.60
2019-03-31T15:04:11.378Z,22.50
2019-03-31T15:06:42.238Z,22.40
2019-03-31T15:09:14.344Z,22.30
2019-03-31T15:11:45.753Z,22.10
2019-03-31T15:14:16.480Z,22.00
2019-03-31T15:16:48.584Z,21.90
2019-03-31T15:19:19.565Z,21.80
2019-03-31T15:21:50.957Z,21.70
2019-03-31T15:24:22.158Z,21.60
2019-03-31T15:26:53.429Z,21.50
2019-03-31T15:29:24.255Z,21.40
2019-03-31T15:31:55.216Z,21.30
2019-03-31T15:34:25.899Z,21.20
2019-03-31T15:36:57.008Z,21.20
2019-03-31T15:39:27.490Z,21.10
2019-03-31T15:41:58.577Z,21.10
2019-03-31T15:44:29.239Z,21.10
2019-03-31T15:46:59.961Z,21.10
2019-03-31T15:49:30.870Z,21.10
2019-03-31T15:52:01.718Z,21.00
2019-03-31T15:54:32.642Z,21.00
2019-03-31T15:57:03.218Z,20.90
2019-03-31T15:59:33.891Z,20.90
2019-03-31T16:02:04.737Z,20.80
2019-03-31T16:04:35.542Z,20.70
2019-03-31T16:07:06.908Z,20.60
2019-03-31T16:09:36.920Z,20.50
2019-03-31T16:12:06.920Z,20.50
2019-03-31T16:14:37.325Z,20.40
2019-03-31T16:17:07.875Z,20.30
2019-03-31T16:22:27.447Z,20.10
2019-03-31T16:25:01.320Z,20.00
2019-03-31T16:27:32.434Z,19.80
2019-03-31T16:30:02.076Z,19.70
2019-03-31T16:32:31.666Z,19.60
2019-03-31T16:35:01.333Z,19.50
2019-03-31T16:37:31.986Z,19.40
2019-03-31T16:40:02.255Z,19.20
2019-03-31T16:42:32.964Z,19.10
2019-03-31T16:45:03.311Z,19.00
2019-03-31T16:47:34.628Z,19.00
2019-03-31T16:50:05.277Z,18.90
2019-03-31T16:52:35.715Z,18.70
2019-03-31T16:55:06.038Z,18.60
2019-03-31T16:57:38.379Z,18.50
2019-03-31T17:00:08.656Z,18.40
2019-03-31T17:02:38.900Z,18.30
2019-03-31T17:05:21.245Z,18.20
2019-03-31T17:07:41.445Z,18.10
2019-03-31T17:10:11.809Z,17.90
2019-03-31T17:12:42.153Z,17.80
2019-03-31T17:15:25.119Z,17.70
2019-03-31T17:17:55.271Z,17.60
2019-03-31T17:20:25.354Z,17.50
2019-03-31T17:22:55.917Z,17.40
2019-03-31T17:25:25.910Z,17.20
2019-03-31T17:27:56.299Z,17.10
2019-03-31T17:30:26.868Z,17.00
2019-03-31T17:32:57.082Z,16.80
2019-03-31T17:35:29.641Z,16.60
2019-03-31T17:38:06.857Z,16.50
2019-03-31T17:40:38.874Z,16.30
2019-03-31T17:43:19.157Z,16.10
2019-03-31T17:45:50.066Z,16.00
2019-03-31T17:48:21.649Z,15.90
2019-03-31T17:50:56.305Z,15.70
2019-03-31T17:53:29.157Z,15.60
2019-03-31T17:56:14.001Z,15.40
2019-03-31T17:58:44.348Z,15.20
2019-03-31T18:01:15.715Z,15.10
2019-03-31T18:03:47.049Z,15.00
2019-03-31T18:06:18.152Z,14.90
2019-03-31T18:08:52.549Z,14.80
2019-03-31T18:11:23.456Z,14.70
2019-03-31T18:13:53.870Z,14.50
2019-03-31T18:16:24.443Z,14.50
2019-03-31T18:18:54.667Z,14.40
2019-03-31T18:21:27.200Z,14.30
2019-03-31T18:23:56.648Z,14.30
2019-03-31T18:26:26.815Z,14.20
2019-03-31T18:28:57.739Z,14.10
2019-03-31T18:31:28.018Z,14.10
2019-03-31T18:33:58.118Z,14.10
2019-03-31T18:36:36.508Z,14.10
2019-03-31T18:39:00.958Z,14.10
2019-03-31T18:41:31.956Z,14.00
2019-03-31T18:44:02.224Z,14.10
2019-03-31T18:46:32.855Z,14.00
2019-03-31T18:49:03.320Z,14.00
2019-03-31T18:51:35.218Z,14.00
2019-03-31T18:54:24.458Z,14.00
2019-03-31T18:57:02.525Z,14.00
2019-03-31T19:00:07.122Z,14.00
2019-03-31T19:03:03.222Z,14.00
2019-03-31T19:05:46.007Z,14.00
2019-03-31T19:08:32.969Z,14.00
2019-03-31T19:11:20.925Z,14.00
2019-03-31T19:14:16.439Z,14.00
2019-03-31T19:17:06.119Z,14.00
2019-03-31T19:20:07.532Z,14.00
2019-03-31T19:22:56.301Z,14.00
2019-03-31T19:25:45.917Z,13.90
2019-03-31T19:28:44.231Z,13.90
2019-03-31T19:31:33.334Z,13.90
2019-03-31T19:34:34.637Z,13.90
2019-03-31T19:37:13.847Z,13.90
2019-03-31T19:40:15.102Z,13.80
2019-03-31T19:43:04.295Z,13.80
2019-03-31T19:45:52.820Z,13.80
2019-03-31T19:48:50.790Z,13.70
2019-03-31T19:51:38.826Z,13.70
2019-03-31T19:54:23.204Z,13.60
2019-03-31T19:57:12.130Z,13.60
2019-03-31T20:00:08.550Z,13.50
2019-03-31T20:02:45.496Z,13.50
2019-03-31T20:05:35.227Z,13.50
2019-03-31T20:08:24.118Z,13.40
2019-03-31T20:11:12.779Z,13.40
2019-03-31T20:13:58.489Z,13.30
2019-03-31T20:16:48.222Z,13.30
2019-03-31T20:19:25.784Z,13.30
2019-03-31T20:22:02.387Z,13.20
2019-03-31T20:25:07.327Z,13.20
2019-03-31T20:27:59.439Z,13.20
2019-03-31T20:31:00.050Z,13.10
2019-03-31T20:33:48.599Z,13.10
2019-03-31T20:36:44.620Z,13.10
2019-03-31T20:39:34.234Z,13.00
2019-03-31T20:42:29.350Z,13.00
2019-03-31T20:45:01.641Z,13.00
2019-03-31T20:47:31.903Z,13.00
2019-03-31T20:50:07.567Z,12.90
2019-03-31T20:52:37.907Z,12.90
2019-03-31T20:55:16.283Z,12.90
2019-03-31T20:57:40.156Z,12.90
2019-03-31T21:00:12.046Z,12.80
2019-03-31T21:02:42.877Z,12.80
2019-03-31T21:05:14.227Z,12.80
2019-03-31T21:07:44.679Z,12.80
2019-03-31T21:10:16.754Z,12.70
2019-03-31T21:12:46.957Z,12.70
2019-03-31T21:15:22.094Z,12.70
2019-03-31T21:17:52.224Z,12.70
2019-03-31T21:20:23.695Z,12.70
2019-03-31T21:22:53.916Z,12.70
2019-03-31T21:25:24.478Z,12.70
2019-03-31T21:27:54.723Z,12.70
2019-03-31T21:30:26.369Z,12.70
2019-03-31T21:32:56.616Z,12.60
2019-03-31T21:35:26.908Z,12.60
2019-03-31T21:37:57.191Z,12.60
2019-03-31T21:40:27.892Z,12.50
2019-03-31T21:42:58.212Z,12.50
2019-03-31T21:45:28.430Z,12.40
2019-03-31T21:47:58.785Z,12.40
2019-03-31T21:50:29.907Z,12.40
2019-03-31T21:52:59.886Z,12.40
2019-03-31T21:55:30.239Z,12.40
2019-03-31T21:58:00.264Z,12.30
2019-03-31T22:00:50.087Z,12.30
2019-03-31T22:03:20.372Z,12.30
2019-03-31T22:05:50.486Z,12.30
2019-03-31T22:08:20.943Z,12.20
2019-03-31T22:10:51.086Z,12.20
2019-03-31T22:13:21.222Z,12.20
2019-03-31T22:15:51.561Z,12.10
2019-03-31T22:18:21.339Z,12.10
2019-03-31T22:20:50.844Z,12.10
2019-03-31T22:23:20.402Z,12.20
2019-03-31T22:25:49.954Z,12.20
2019-03-31T22:28:19.458Z,12.10
2019-03-31T22:30:50.034Z,12.10
2019-03-31T22:33:19.951Z,12.10
2019-03-31T22:36:07.427Z,12.00
2019-03-31T22:38:37.071Z,12.00
2019-03-31T22:41:06.597Z,12.00
2019-03-31T22:43:36.279Z,11.90
2019-03-31T22:46:05.986Z,11.90
2019-03-31T22:48:35.818Z,11.80
2019-03-31T22:51:05.336Z,11.80
2019-03-31T22:53:35.369Z,11.80
2019-03-31T22:56:05.023Z,11.70
2019-03-31T22:58:34.847Z,11.70
2019-03-31T23:01:04.626Z,11.60
2019-03-31T23:03:34.219Z,11.60
2019-03-31T23:06:03.721Z,11.50
2019-03-31T23:08:33.318Z,11.50
2019-03-31T23:11:03.826Z,11.40
2019-03-31T23:13:33.334Z,11.40
2019-03-31T23:16:03.338Z,11.40
2019-03-31T23:18:32.933Z,11.40
2019-03-31T23:21:02.596Z,11.40
2019-03-31T23:23:32.218Z,11.30
2019-03-31T23:26:03.497Z,11.30
2019-03-31T23:28:33.117Z,11.30
2019-03-31T23:31:03.786Z,11.30
2019-03-31T23:33:33.530Z,11.30
2019-03-31T23:36:03.050Z,11.20
2019-03-31T23:38:32.582Z,11.20
2019-03-31T23:41:02.159Z,11.20
2019-03-31T23:43:32.757Z,11.20
2019-03-31T23:46:02.638Z,11.10
2019-03-31T23:48:32.175Z,11.10
2019-03-31T23:51:01.665Z,11.10
2019-03-31T23:53:31.330Z,11.10
2019-03-31T23:56:00.866Z,11.00
2019-03-31T23:58:31.526Z,11.00
